Time;durP1;ratioP1;P1;durP2;ratioP2;P2;SDS_P1;SDS_P2;PMS_P1;PMS_P2;Temp;Humidity;BMP_temperature;BMP_pressure;BME280_temperature;BME280_humidity;BME280_pressure;Samples;Min_cycle;Max_cycle;Signal;HPM_P1;HPM_P2
2022/09/16 04:16:35;;;;;;;2.72;0.35;;;;;;;23.36;51.37;100537.69;5093418;27;1357731;-83
2022/09/16 04:19:01;;;;;;;0.32;0.32;;;;;;;23.50;51.02;100530.13;5093663;28;20063;-82
2022/09/16 04:21:28;;;;;;;0.95;0.95;;;;;;;23.57;51.04;100513.50;5109382;28;20027;-81
2022/09/16 04:23:53;;;;;;;2.58;0.50;;;;;;;23.74;50.65;100517.84;5093276;28;20035;-82
2022/09/16 04:26:19;;;;;;;1.30;0.82;;;;;;;23.79;50.38;100512.06;5109601;28;20028;-81
2022/09/16 04:28:46;;;;;;;3.20;0.80;;;;;;;23.91;50.24;100525.81;5092598;28;20023;-81
2022/09/16 04:31:13;;;;;;;2.58;1.10;;;;;;;24.03;50.30;100519.19;5075162;28;20080;-92
2022/09/16 04:33:39;;;;;;;0.30;0.30;;;;;;;24.07;50.10;100527.63;5093125;28;20023;-96
2022/09/16 04:36:15;;;;;;;0.50;0.40;;;;;;;24.19;50.16;100535.06;5075857;28;20031;-90
2022/09/16 04:38:41;;;;;;;0.60;0.60;;;;;;;24.10;50.66;100529.94;5092221;28;20144;-94
2022/09/16 04:41:17;;;;;;;0.30;0.30;;;;;;;24.07;51.20;100517.88;5044849;28;20040;-86
2022/09/16 04:43:43;;;;;;;0.88;0.80;;;;;;;24.02;51.41;100504.34;5065230;28;20726;-83
2022/09/16 04:46:09;;;;;;;0.38;0.30;;;;;;;24.11;51.21;100521.84;5078476;28;20123;-82
2022/09/16 04:48:34;;;;;;;1.02;0.65;;;;;;;24.07;51.89;100519.69;5065176;28;20029;-82
2022/09/16 04:51:05;;;;;;;1.58;1.48;;;;;;;24.13;52.21;100514.56;5066870;28;20146;-88
2022/09/16 04:53:30;;;;;;;1.30;1.20;;;;;;;24.10;52.61;100504.34;5070834;28;20547;-84
2022/09/16 04:56:14;;;;;;;1.25;1.15;;;;;;;24.19;52.64;100505.19;5066883;28;20032;-83
2022/09/16 04:58:40;;;;;;;1.05;0.68;;;;;;;24.28;51.85;100512.91;5077307;28;20032;-80
2022/09/16 05:01:06;;;;;;;1.17;0.95;;;;;;;24.39;52.07;100529.47;5069911;28;20032;-87
2022/09/16 05:03:32;;;;;;;0.40;0.40;;;;;;;24.33;51.97;100514.28;5050933;28;20056;-84
2022/09/16 05:06:12;;;;;;;1.60;0.95;;;;;;;24.44;52.29;100537.72;5048691;28;20021;-86
2022/09/16 05:08:38;;;;;;;1.02;0.75;;;;;;;24.36;51.91;100513.94;5066051;28;20024;-94
2022/09/16 05:11:11;;;;;;;1.15;0.90;;;;;;;24.47;52.11;100521.50;5069170;28;20036;-93
2022/09/16 05:13:37;;;;;;;2.40;1.60;;;;;;;24.46;51.69;100525.97;5058930;28;20595;-95
2022/09/16 05:16:16;;;;;;;0.95;0.85;;;;;;;24.48;52.24;100526.66;5071238;28;20483;-96
2022/09/16 05:18:42;;;;;;;0.82;0.80;;;;;;;24.42;52.16;100518.56;5069547;28;20111;-86
2022/09/16 05:21:09;;;;;;;0.65;0.65;;;;;;;24.40;52.81;100521.38;5084883;28;20024;-86
2022/09/16 05:23:35;;;;;;;1.85;1.10;;;;;;;24.36;52.30;100498.06;5066050;28;21136;-87
2022/09/16 05:26:05;;;;;;;0.73;0.63;;;;;;;24.52;51.97;100511.28;5087740;28;20036;-84
2022/09/16 05:28:31;;;;;;;1.17;0.95;;;;;;;24.34;52.12;100505.34;5071126;28;20020;-84
2022/09/16 05:31:10;;;;;;;0.93;0.73;;;;;;;24.37;52.13;100518.22;5091086;28;20075;-85
2022/09/16 05:33:35;;;;;;;1.02;0.80;;;;;;;24.30;52.23;100536.56;5074992;28;20035;-94
2022/09/16 05:36:06;;;;;;;1.52;1.02;;;;;;;24.17;52.40;100517.72;5069168;28;20028;-88
2022/09/16 05:38:32;;;;;;;1.17;0.60;;;;;;;24.11;52.43;100507.81;5064649;28;20024;-88
2022/09/16 05:41:01;;;;;;;0.30;0.30;;;;;;;24.16;52.63;100514.25;5040797;28;20060;-96
2022/09/16 05:43:26;;;;;;;0.90;0.75;;;;;;;24.23;52.12;100503.84;5039290;28;20100;-91
2022/09/16 05:45:52;;;;;;;0.50;0.50;;;;;;;24.24;52.79;100511.59;5055822;28;20123;-90
2022/09/16 05:48:18;;;;;;;1.20;0.63;;;;;;;24.31;53.61;100509.97;5058466;28;20032;-93
2022/09/16 05:50:51;;;;;;;0.55;0.50;;;;;;;24.22;52.75;100518.88;5075673;28;20032;-91
2022/09/16 05:53:17;;;;;;;0.30;0.30;;;;;;;24.31;52.42;100525.84;5075458;28;20035;-95
2022/09/16 05:56:01;;;;;;;2.78;0.90;;;;;;;24.38;52.21;100538.38;5080866;28;20021;-91
2022/09/16 05:58:28;;;;;;;1.15;0.77;;;;;;;24.37;52.51;100529.63;5071731;28;20527;-93
2022/09/16 06:01:04;;;;;;;0.68;0.68;;;;;;;24.33;52.74;100506.34;5059569;28;20034;-94
2022/09/16 06:03:30;;;;;;;0.60;0.60;;;;;;;24.36;52.53;100530.63;5074841;28;20046;-88
2022/09/16 06:06:32;;;;;;;0.52;0.43;;;;;;;24.51;52.57;100534.25;5064663;28;20024;-90
2022/09/16 06:09:08;;;;;;;0.70;0.68;;;;;;;24.48;52.07;100531.94;5060723;28;20044;-94
2022/09/16 06:11:37;;;;;;;1.05;0.95;;;;;;;24.47;52.25;100526.81;5075108;28;20522;-93
2022/09/16 06:14:03;;;;;;;1.05;0.80;;;;;;;24.56;51.57;100536.38;5077428;28;20093;-95
2022/09/16 06:16:31;;;;;;;0.43;0.40;;;;;;;24.52;51.12;100532.44;5050725;28;20496;-93
2022/09/16 06:18:57;;;;;;;0.70;0.60;;;;;;;24.62;52.86;100537.53;5085230;28;20115;-89
2022/09/16 06:21:23;;;;;;;1.15;0.57;;;;;;;24.63;51.70;100532.06;5076961;28;20028;-90
2022/09/16 06:23:49;;;;;;;2.15;1.33;;;;;;;24.89;52.03;100543.25;5073816;28;20032;-86
2022/09/16 06:26:19;;;;;;;1.10;0.77;;;;;;;24.94;52.29;100533.97;5089672;28;20050;-91
2022/09/16 06:28:46;;;;;;;0.63;0.63;;;;;;;24.95;49.44;100528.50;5055382;28;20113;-84
2022/09/16 06:31:13;;;;;;;0.25;0.25;;;;;;;25.07;50.19;100539.56;5064310;28;20033;-96
2022/09/16 06:33:38;;;;;;;0.30;0.30;;;;;;;25.05;50.95;100554.81;5047569;28;20025;-85
2022/09/16 06:36:05;;;;;;;3.53;1.27;;;;;;;25.00;50.58;100520.91;5064350;28;20028;-84
2022/09/16 06:38:31;;;;;;;0.30;0.30;;;;;;;25.24;49.65;100533.22;5085945;28;20032;-85
2022/09/16 06:41:00;;;;;;;1.10;0.45;;;;;;;25.47;49.92;100538.59;5061010;28;20048;-89
2022/09/16 06:43:26;;;;;;;1.20;0.70;;;;;;;25.57;49.81;100535.72;5052974;28;20034;-86
2022/09/16 06:46:05;;;;;;;0.55;0.40;;;;;;;25.56;49.08;100526.09;5055214;28;20489;-84
2022/09/16 06:48:33;;;;;;;0.35;0.32;;;;;;;25.74;50.33;100524.03;5074190;28;20058;-85
2022/09/16 06:51:00;;;;;;;1.25;1.13;;;;;;;25.79;49.98;100519.06;5090900;28;20070;-86
2022/09/16 06:53:26;;;;;;;2.00;1.13;;;;;;;25.85;48.11;100515.69;5072519;28;20027;-85
2022/09/16 06:55:51;;;;;;;0.52;0.40;;;;;;;25.82;48.70;100518.69;5077243;28;20059;-96
2022/09/16 06:58:17;;;;;;;0.38;0.38;;;;;;;25.65;46.89;100506.50;5061609;28;20042;-85
2022/09/16 07:00:42;;;;;;;1.75;0.63;;;;;;;25.70;47.47;100515.63;5053031;28;20098;-88
2022/09/16 07:03:08;;;;;;;1.25;0.65;;;;;;;25.39;47.74;100486.50;5059883;28;20051;-84
2022/09/16 07:05:33;;;;;;;0.85;0.80;;;;;;;25.50;47.76;100503.00;5084531;28;20033;-93
2022/09/16 07:07:59;;;;;;;1.00;0.98;;;;;;;25.80;48.51;100498.69;5064810;28;20404;-84
2022/09/16 07:10:24;;;;;;;3.45;0.60;;;;;;;25.90;48.11;100504.56;5073344;28;20035;-89
2022/09/16 07:12:50;;;;;;;0.75;0.75;;;;;;;26.09;49.36;100505.91;5090537;28;20028;-90
2022/09/16 07:15:16;;;;;;;0.55;0.50;;;;;;;26.24;48.28;100517.34;5069225;28;20048;-92
2022/09/16 07:17:41;;;;;;;0.57;0.57;;;;;;;26.27;48.03;100490.50;5062157;28;20027;-90
2022/09/16 07:20:07;;;;;;;0.65;0.60;;;;;;;26.27;46.10;100517.84;5082778;28;20490;-91
2022/09/16 07:22:33;;;;;;;0.80;0.55;;;;;;;26.13;46.29;100520.44;5066806;28;20047;-92
2022/09/16 07:24:58;;;;;;;0.65;0.55;;;;;;;26.24;48.89;100523.47;5077917;28;20041;-93
2022/09/16 07:27:24;;;;;;;1.40;1.23;;;;;;;26.10;46.90;100526.09;5056426;28;20683;-94
2022/09/16 07:29:49;;;;;;;1.80;0.73;;;;;;;25.87;47.26;100516.34;5041330;28;20039;-89
2022/09/16 07:32:15;;;;;;;2.40;0.70;;;;;;;26.01;46.57;100512.91;5061394;28;20037;-88
2022/09/16 07:34:40;;;;;;;0.75;0.55;;;;;;;26.26;47.62;100520.69;5066638;28;20032;-91
2022/09/16 07:37:06;;;;;;;0.40;0.40;;;;;;;26.36;46.22;100509.81;5047719;28;20485;-86
2022/09/16 07:39:31;;;;;;;0.43;0.40;;;;;;;26.50;45.72;100507.19;5033940;28;20025;-90
2022/09/16 07:41:57;;;;;;;0.32;0.32;;;;;;;26.68;44.56;100519.28;5013688;28;20052;-88
2022/09/16 07:44:23;;;;;;;0.47;0.30;;;;;;;26.63;43.59;100501.25;5057978;28;20094;-85
2022/09/16 07:46:49;;;;;;;0.55;0.43;;;;;;;26.87;43.42;100513.44;5088052;28;20034;-92
2022/09/16 07:49:15;;;;;;;0.40;0.40;;;;;;;26.99;43.80;100511.16;5064168;28;20035;-84
2022/09/16 07:51:41;;;;;;;1.73;1.33;;;;;;;27.04;44.21;100504.31;5064281;28;20184;-84
2022/09/16 07:54:08;;;;;;;0.45;0.45;;;;;;;27.06;45.73;100496.97;5084270;28;20029;-85
2022/09/16 07:56:35;;;;;;;1.13;0.88;;;;;;;27.22;43.30;100516.34;5086663;28;20503;-92
2022/09/16 07:59:02;;;;;;;0.98;0.73;;;;;;;27.25;45.74;100516.00;5069548;28;20059;-90
2022/09/16 08:01:29;;;;;;;0.95;0.65;;;;;;;27.28;43.48;100532.38;5039055;28;20032;-95
2022/09/16 08:03:55;;;;;;;0.47;0.47;;;;;;;27.46;43.03;100534.63;5049987;28;20116;-94
2022/09/16 08:06:23;;;;;;;1.67;0.90;;;;;;;27.52;42.19;100536.53;5071833;28;20090;-84
2022/09/16 08:08:51;;;;;;;0.70;0.70;;;;;;;27.39;42.37;100515.13;5053369;28;20028;-86
2022/09/16 08:11:16;;;;;;;0.65;0.40;;;;;;;27.38;43.29;100519.63;5069609;28;20024;-83
2022/09/16 08:13:42;;;;;;;0.82;0.73;;;;;;;27.18;42.94;100501.81;5086833;28;20035;-83
2022/09/16 08:16:10;;;;;;;1.85;0.70;;;;;;;27.31;46.59;100509.94;5064084;28;20494;-90
2022/09/16 08:18:36;;;;;;;0.60;0.47;;;;;;;27.34;44.07;100504.25;5051569;28;20032;-94
2022/09/16 08:21:08;;;;;;;0.85;0.60;;;;;;;27.33;45.12;100507.91;5074628;28;20448;-93
2022/09/16 08:23:35;;;;;;;0.95;0.85;;;;;;;27.35;45.99;100511.22;5071901;28;20020;-88
2022/09/16 08:26:00;;;;;;;0.40;0.40;;;;;;;27.21;42.88;100490.81;5068834;28;20024;-93
2022/09/16 08:28:26;;;;;;;1.15;0.77;;;;;;;27.34;46.52;100512.22;5071585;28;20096;-90
2022/09/16 08:30:52;;;;;;;1.42;1.05;;;;;;;27.35;43.16;100513.88;5056755;28;20070;-93
2022/09/16 08:33:22;;;;;;;1.00;0.73;;;;;;;27.32;44.07;100516.88;5061456;28;20079;-88
2022/09/16 08:35:57;;;;;;;0.88;0.77;;;;;;;27.33;45.74;100514.03;5052841;28;20489;-84
2022/09/16 08:38:23;;;;;;;0.63;0.45;;;;;;;27.37;44.43;100503.88;5051719;28;20029;-83
2022/09/16 08:40:52;;;;;;;2.65;0.80;;;;;;;27.38;42.54;100506.34;5048464;28;20045;-95
2022/09/16 08:43:41;;;;;;;1.05;0.60;;;;;;;27.42;43.29;100498.81;5084740;28;20036;-86
2022/09/16 08:46:12;;;;;;;0.88;0.80;;;;;;;27.37;43.72;100499.38;5070078;28;20028;-85
2022/09/16 08:48:47;;;;;;;2.83;1.98;;;;;;;27.40;45.49;100498.19;5043570;28;20036;-81
2022/09/16 08:51:15;;;;;;;1.08;0.98;;;;;;;27.31;44.02;100459.47;5057959;28;20032;-88
2022/09/16 08:53:45;;;;;;;1.05;0.80;;;;;;;27.49;44.45;100486.44;5054996;28;20024;-82
2022/09/16 08:56:13;;;;;;;0.40;0.40;;;;;;;27.48;44.89;100474.16;5058770;28;20068;-83
2022/09/16 08:58:47;;;;;;;1.02;0.80;;;;;;;27.52;43.28;100486.03;5069027;28;20035;-87
2022/09/16 09:01:34;;;;;;;0.45;0.40;;;;;;;27.71;44.33;100485.44;5034806;28;20031;-80
2022/09/16 09:04:00;;;;;;;1.08;0.98;;;;;;;27.67;43.77;100475.41;5077669;28;20200;-82
2022/09/16 09:06:47;;;;;;;0.73;0.63;;;;;;;27.78;43.14;100485.53;5079060;28;20036;-83
2022/09/16 09:09:31;;;;;;;0.95;0.82;;;;;;;27.84;43.07;100490.09;5088580;28;20024;-85
2022/09/16 09:11:56;;;;;;;0.90;0.80;;;;;;;27.81;41.63;100473.69;5089791;28;20477;-83
2022/09/16 09:14:32;;;;;;;0.57;0.57;;;;;;;27.81;42.35;100473.69;5091889;28;20124;-95
2022/09/16 09:17:23;;;;;;;0.85;0.60;;;;;;;27.96;42.84;100475.25;5076533;28;20115;-83
2022/09/16 09:20:21;;;;;;;1.02;0.82;;;;;;;28.15;41.54;100481.75;5079869;28;20056;-88
2022/09/16 09:23:40;;;;;;;1.10;0.80;;;;;;;28.22;40.90;100479.13;5047239;28;20070;-91
2022/09/16 09:26:12;;;;;;;1.08;0.60;;;;;;;28.36;41.56;100483.56;5026493;28;20033;-83
2022/09/16 09:28:48;;;;;;;0.60;0.47;;;;;;;28.34;41.37;100468.81;5083610;28;20889;-82
2022/09/16 09:31:24;;;;;;;0.82;0.70;;;;;;;28.57;41.36;100474.69;5089130;28;20039;-86
2022/09/16 09:33:56;;;;;;;0.57;0.43;;;;;;;28.65;40.32;100479.03;5089622;28;20023;-81
2022/09/16 09:36:56;;;;;;;0.73;0.60;;;;;;;28.76;39.92;100468.66;5091207;28;20028;-89
2022/09/16 09:39:27;;;;;;;0.50;0.50;;;;;;;28.74;39.36;100476.03;5073546;28;20053;-88
2022/09/16 09:42:14;;;;;;;0.93;0.60;;;;;;;29.01;38.85;100486.84;5051787;28;20051;-89
2022/09/16 09:45:26;;;;;;;0.70;0.70;;;;;;;29.23;39.18;100475.03;5070160;28;20032;-87
2022/09/16 09:47:57;;;;;;;2.10;0.93;;;;;;;29.09;38.14;100452.84;4986400;28;20030;-87
2022/09/16 09:50:32;;;;;;;1.10;0.77;;;;;;;29.18;37.82;100471.31;4991104;28;20049;-87
2022/09/16 09:53:10;;;;;;;0.40;0.40;;;;;;;29.20;37.72;100475.41;5011634;28;20120;-86
2022/09/16 09:55:37;;;;;;;1.10;0.70;;;;;;;29.23;37.96;100480.34;5080339;28;20079;-91
2022/09/16 09:58:20;;;;;;;0.40;0.40;;;;;;;29.29;36.86;100463.53;5058953;28;20017;-95
2022/09/16 10:00:46;;;;;;;0.93;0.63;;;;;;;29.30;37.41;100472.34;5037117;28;20067;-87
2022/09/16 10:03:13;;;;;;;1.67;1.00;;;;;;;29.18;36.97;100473.97;5056925;28;20028;-83
2022/09/16 10:05:38;;;;;;;0.75;0.68;;;;;;;29.27;37.40;100459.44;5084786;28;20040;-82
2022/09/16 10:08:28;;;;;;;0.55;0.40;;;;;;;29.37;37.12;100455.38;5066292;28;20031;-82
2022/09/16 10:10:55;;;;;;;0.30;0.30;;;;;;;29.40;36.91;100460.31;5075031;28;20454;-81
2022/09/16 10:13:21;;;;;;;0.50;0.50;;;;;;;29.36;36.97;100453.75;5090288;28;20032;-83
2022/09/16 10:15:47;;;;;;;1.17;0.65;;;;;;;29.42;37.07;100450.28;5071185;28;20108;-81
2022/09/16 10:18:23;;;;;;;0.60;0.57;;;;;;;29.51;37.14;100432.28;5066999;28;20456;-81
2022/09/16 10:21:06;;;;;;;1.42;0.95;;;;;;;29.55;36.69;100436.16;5071410;28;20024;-84
2022/09/16 10:23:32;;;;;;;1.25;0.70;;;;;;;29.58;37.00;100426.94;5046765;28;20058;-84
2022/09/16 10:26:18;;;;;;;0.68;0.60;;;;;;;29.64;36.32;100434.13;5067563;28;20497;-82
2022/09/16 10:29:01;;;;;;;0.52;0.45;;;;;;;29.62;36.62;100426.34;5090070;28;20031;-82
2022/09/16 10:31:36;;;;;;;0.52;0.30;;;;;;;29.59;36.36;100416.06;5073045;28;20130;-83
2022/09/16 10:34:03;;;;;;;0.50;0.50;;;;;;;29.65;36.30;100417.13;5090282;28;20054;-82
2022/09/16 10:36:32;;;;;;;1.63;0.82;;;;;;;29.77;37.10;100422.66;5073214;28;20024;-82
2022/09/16 10:39:00;;;;;;;3.22;1.65;;;;;;;29.80;36.83;100424.91;5057041;28;20028;-89
2022/09/16 10:41:31;;;;;;;3.13;2.00;;;;;;;29.73;37.11;100405.44;5052433;28;20062;-83
2022/09/16 10:44:01;;;;;;;6.50;5.45;;;;;;;29.79;36.59;100415.25;5073738;28;20032;-85
2022/09/16 10:46:27;;;;;;;2.25;1.17;;;;;;;29.90;36.42;100406.66;5089366;28;20402;-87
2022/09/16 10:48:55;;;;;;;1.15;0.80;;;;;;;29.82;36.30;100397.03;5058792;28;20035;-79
2022/09/16 10:51:28;;;;;;;0.50;0.50;;;;;;;29.93;36.05;100399.06;5061034;28;20391;-85
2022/09/16 10:54:00;;;;;;;1.38;0.93;;;;;;;30.09;35.94;100386.31;5053564;28;20095;-83
2022/09/16 10:56:50;;;;;;;0.90;0.60;;;;;;;30.19;36.25;100389.41;5052167;28;20078;-84
2022/09/16 10:59:16;;;;;;;1.13;0.90;;;;;;;30.25;36.13;100378.69;5070290;28;20039;-92
2022/09/16 11:01:43;;;;;;;0.60;0.60;;;;;;;30.33;36.05;100375.00;5036069;28;20024;-84
2022/09/16 11:04:13;;;;;;;1.08;0.70;;;;;;;30.27;35.56;100359.81;5069631;28;20532;-82
2022/09/16 11:06:54;;;;;;;0.73;0.70;;;;;;;30.26;35.64;100352.84;5069399;28;20021;-84
2022/09/16 11:09:57;;;;;;;2.17;0.70;;;;;;;30.26;35.99;100359.00;5069405;28;20028;-82
2022/09/16 11:12:35;;;;;;;1.08;0.77;;;;;;;30.23;36.69;100355.94;5071443;28;20064;-83
2022/09/16 11:15:11;;;;;;;1.40;0.93;;;;;;;29.97;37.45;100346.94;5068710;28;20040;-86
2022/09/16 11:17:55;;;;;;;0.50;0.50;;;;;;;29.73;37.45;100368.09;5073316;28;20032;-92
2022/09/16 11:20:28;;;;;;;0.60;0.60;;;;;;;29.59;38.78;100370.75;5068603;28;20059;-83
2022/09/16 11:23:18;;;;;;;0.85;0.60;;;;;;;29.65;38.84;100355.81;5069530;28;20127;-88
2022/09/16 11:26:07;;;;;;;0.68;0.50;;;;;;;29.81;37.81;100376.72;5066573;28;20494;-81
2022/09/16 11:28:52;;;;;;;0.80;0.70;;;;;;;29.88;38.32;100366.84;5056896;28;20575;-81
2022/09/16 11:32:13;;;;;;;1.13;0.95;;;;;;;29.92;38.19;100351.25;5034196;28;20799;-81
2022/09/16 11:35:06;;;;;;;1.45;0.90;;;;;;;29.80;38.33;100352.94;5007524;28;20041;-90
2022/09/16 11:37:35;;;;;;;0.55;0.52;;;;;;;29.56;38.23;100349.03;5066056;28;20063;-85
2022/09/16 11:40:13;;;;;;;0.82;0.70;;;;;;;29.34;38.91;100341.22;5066227;28;20055;-82
2022/09/16 11:42:49;;;;;;;0.90;0.65;;;;;;;29.29;39.58;100346.31;5068314;28;20561;-82
2022/09/16 11:45:40;;;;;;;1.77;0.85;;;;;;;29.19;40.53;100351.22;5052612;28;20020;-85
2022/09/16 11:48:21;;;;;;;1.13;0.87;;;;;;;29.21;39.96;100351.88;5050800;28;20528;-85
2022/09/16 11:51:09;;;;;;;1.85;1.30;;;;;;;29.11;40.38;100356.78;5070887;28;20024;-91
2022/09/16 11:53:58;;;;;;;0.95;0.80;;;;;;;29.12;41.04;100345.09;5041995;28;20047;-83
2022/09/16 11:57:11;;;;;;;0.65;0.52;;;;;;;29.38;39.62;100333.63;5053845;28;20036;-83
2022/09/16 11:59:52;;;;;;;0.70;0.60;;;;;;;29.46;39.01;100320.09;5056238;28;20521;-80
2022/09/16 12:02:20;;;;;;;0.88;0.70;;;;;;;29.56;39.15;100319.72;5069341;28;20029;-82
2022/09/16 12:04:50;;;;;;;2.58;1.20;;;;;;;29.55;39.05;100307.41;5069666;28;20028;-80
2022/09/16 12:07:23;;;;;;;0.70;0.63;;;;;;;29.52;39.35;100298.00;5033990;28;20062;-82
2022/09/16 12:10:04;;;;;;;1.27;0.95;;;;;;;29.68;39.35;100315.38;5050700;28;20082;-86
